sensor_id;sensor_type;location;lat;lon;timestamp;P1;durP1;ratioP1;P2;durP2;ratioP2
41061;SDS011;26812;42.662;23.352;2023-02-12T00:00:29;10.48;;;8.52;;
41061;SDS011;26812;42.662;23.352;2023-02-12T00:02:55;12.63;;;7.97;;
41061;SDS011;26812;42.662;23.352;2023-02-12T00:05:20;11.65;;;7.93;;
41061;SDS011;26812;42.662;23.352;2023-02-12T00:07:45;12.23;;;8.20;;
41061;SDS011;26812;42.662;23.352;2023-02-12T00:10:11;13.10;;;8.27;;
41061;SDS011;26812;42.662;23.352;2023-02-12T00:12:37;12.50;;;8.70;;
41061;SDS011;26812;42.662;23.352;2023-02-12T00:15:03;13.07;;;9.27;;
41061;SDS011;26812;42.662;23.352;2023-02-12T00:17:28;9.95;;;7.50;;
41061;SDS011;26812;42.662;23.352;2023-02-12T00:19:54;11.77;;;8.13;;
41061;SDS011;26812;42.662;23.352;2023-02-12T00:22:19;10.07;;;7.65;;
41061;SDS011;26812;42.662;23.352;2023-02-12T00:24:44;15.10;;;8.45;;
41061;SDS011;26812;42.662;23.352;2023-02-12T00:27:10;13.23;;;7.55;;
41061;SDS011;26812;42.662;23.352;2023-02-12T00:29:36;9.93;;;7.72;;
41061;SDS011;26812;42.662;23.352;2023-02-12T00:32:08;8.45;;;6.55;;
41061;SDS011;26812;42.662;23.352;2023-02-12T00:34:34;8.98;;;7.53;;
41061;SDS011;26812;42.662;23.352;2023-02-12T00:36:59;12.30;;;8.88;;
41061;SDS011;26812;42.662;23.352;2023-02-12T00:39:25;12.35;;;8.02;;
41061;SDS011;26812;42.662;23.352;2023-02-12T00:41:50;10.55;;;7.57;;
41061;SDS011;26812;42.662;23.352;2023-02-12T00:44:16;9.55;;;7.40;;
41061;SDS011;26812;42.662;23.352;2023-02-12T00:46:41;11.75;;;8.10;;
41061;SDS011;26812;42.662;23.352;2023-02-12T00:49:06;13.02;;;8.52;;
41061;SDS011;26812;42.662;23.352;2023-02-12T00:51:32;12.18;;;7.65;;
41061;SDS011;26812;42.662;23.352;2023-02-12T00:53:57;10.05;;;7.70;;
41061;SDS011;26812;42.662;23.352;2023-02-12T00:56:23;10.50;;;8.40;;
41061;SDS011;26812;42.662;23.352;2023-02-12T00:58:48;12.02;;;7.80;;
41061;SDS011;26812;42.662;23.352;2023-02-12T01:01:14;10.77;;;7.55;;
41061;SDS011;26812;42.662;23.352;2023-02-12T01:03:40;10.00;;;7.50;;
41061;SDS011;26812;42.662;23.352;2023-02-12T01:06:06;13.23;;;8.05;;
41061;SDS011;26812;42.662;23.352;2023-02-12T01:08:31;10.65;;;7.68;;
41061;SDS011;26812;42.662;23.352;2023-02-12T01:10:58;12.55;;;8.23;;
41061;SDS011;26812;42.662;23.352;2023-02-12T01:13:25;10.60;;;7.78;;
41061;SDS011;26812;42.662;23.352;2023-02-12T01:16:01;10.90;;;7.95;;
41061;SDS011;26812;42.662;23.352;2023-02-12T01:18:33;12.10;;;8.73;;
41061;SDS011;26812;42.662;23.352;2023-02-12T01:20:59;9.82;;;7.10;;
41061;SDS011;26812;42.662;23.352;2023-02-12T01:23:25;8.75;;;7.03;;
41061;SDS011;26812;42.662;23.352;2023-02-12T01:25:51;9.55;;;7.32;;
41061;SDS011;26812;42.662;23.352;2023-02-12T01:28:17;12.75;;;8.07;;
41061;SDS011;26812;42.662;23.352;2023-02-12T01:30:43;11.68;;;8.48;;
41061;SDS011;26812;42.662;23.352;2023-02-12T01:33:08;10.85;;;8.70;;
41061;SDS011;26812;42.662;23.352;2023-02-12T01:35:35;14.85;;;8.40;;
41061;SDS011;26812;42.662;23.352;2023-02-12T01:38:01;10.25;;;8.30;;
41061;SDS011;26812;42.662;23.352;2023-02-12T01:40:27;12.00;;;9.20;;
41061;SDS011;26812;42.662;23.352;2023-02-12T01:42:52;12.05;;;8.55;;
41061;SDS011;26812;42.662;23.352;2023-02-12T01:47:46;11.15;;;8.00;;
41061;SDS011;26812;42.662;23.352;2023-02-12T01:50:12;14.68;;;9.07;;
41061;SDS011;26812;42.662;23.352;2023-02-12T01:52:42;11.15;;;8.07;;
41061;SDS011;26812;42.662;23.352;2023-02-12T01:55:12;14.07;;;9.10;;
41061;SDS011;26812;42.662;23.352;2023-02-12T01:57:39;13.27;;;8.57;;
41061;SDS011;26812;42.662;23.352;2023-02-12T02:00:08;13.70;;;9.27;;
41061;SDS011;26812;42.662;23.352;2023-02-12T02:02:37;12.70;;;8.23;;
41061;SDS011;26812;42.662;23.352;2023-02-12T02:05:03;15.30;;;9.05;;
41061;SDS011;26812;42.662;23.352;2023-02-12T02:07:30;10.75;;;8.20;;
41061;SDS011;26812;42.662;23.352;2023-02-12T02:09:56;13.13;;;8.68;;
41061;SDS011;26812;42.662;23.352;2023-02-12T02:12:23;13.82;;;9.80;;
41061;SDS011;26812;42.662;23.352;2023-02-12T02:15:08;13.45;;;9.27;;
41061;SDS011;26812;42.662;23.352;2023-02-12T02:17:38;13.32;;;8.93;;
41061;SDS011;26812;42.662;23.352;2023-02-12T02:20:20;15.75;;;9.80;;
41061;SDS011;26812;42.662;23.352;2023-02-12T02:31:57;11.98;;;9.07;;
41061;SDS011;26812;42.662;23.352;2023-02-12T02:34:40;14.63;;;10.85;;
41061;SDS011;26812;42.662;23.352;2023-02-12T02:37:30;13.40;;;9.85;;
41061;SDS011;26812;42.662;23.352;2023-02-12T02:45:01;16.23;;;11.02;;
41061;SDS011;26812;42.662;23.352;2023-02-12T02:47:45;13.70;;;10.15;;
41061;SDS011;26812;42.662;23.352;2023-02-12T02:50:15;16.38;;;10.30;;
41061;SDS011;26812;42.662;23.352;2023-02-12T02:55:23;16.50;;;9.98;;
41061;SDS011;26812;42.662;23.352;2023-02-12T03:01:04;15.40;;;10.60;;
41061;SDS011;26812;42.662;23.352;2023-02-12T03:03:22;14.45;;;10.00;;
41061;SDS011;26812;42.662;23.352;2023-02-12T03:05:54;14.90;;;10.00;;
41061;SDS011;26812;42.662;23.352;2023-02-12T03:11:00;15.80;;;10.27;;
41061;SDS011;26812;42.662;23.352;2023-02-12T03:13:32;17.67;;;10.35;;
41061;SDS011;26812;42.662;23.352;2023-02-12T03:16:09;16.55;;;10.10;;
41061;SDS011;26812;42.662;23.352;2023-02-12T03:18:40;13.70;;;10.00;;
41061;SDS011;26812;42.662;23.352;2023-02-12T03:21:11;14.55;;;10.45;;
41061;SDS011;26812;42.662;23.352;2023-02-12T03:23:46;15.55;;;10.15;;
41061;SDS011;26812;42.662;23.352;2023-02-12T03:26:15;14.13;;;10.05;;
41061;SDS011;26812;42.662;23.352;2023-02-12T03:28:46;18.55;;;10.88;;
41061;SDS011;26812;42.662;23.352;2023-02-12T03:34:23;14.88;;;9.68;;
41061;SDS011;26812;42.662;23.352;2023-02-12T03:37:13;14.60;;;10.48;;
41061;SDS011;26812;42.662;23.352;2023-02-12T03:42:51;16.35;;;10.23;;
41061;SDS011;26812;42.662;23.352;2023-02-12T03:45:26;14.50;;;9.77;;
41061;SDS011;26812;42.662;23.352;2023-02-12T03:48:24;16.80;;;11.23;;
41061;SDS011;26812;42.662;23.352;2023-02-12T03:53:27;15.23;;;11.15;;
41061;SDS011;26812;42.662;23.352;2023-02-12T03:55:59;15.77;;;10.85;;
41061;SDS011;26812;42.662;23.352;2023-02-12T03:58:31;13.77;;;10.57;;
41061;SDS011;26812;42.662;23.352;2023-02-12T04:00:59;21.33;;;12.02;;
41061;SDS011;26812;42.662;23.352;2023-02-12T04:03:26;18.45;;;14.02;;
41061;SDS011;26812;42.662;23.352;2023-02-12T04:05:53;15.57;;;11.90;;
41061;SDS011;26812;42.662;23.352;2023-02-12T04:08:18;16.35;;;11.57;;
41061;SDS011;26812;42.662;23.352;2023-02-12T04:11:06;18.58;;;11.48;;
41061;SDS011;26812;42.662;23.352;2023-02-12T04:13:41;17.95;;;11.45;;
41061;SDS011;26812;42.662;23.352;2023-02-12T04:16:32;18.65;;;12.20;;
41061;SDS011;26812;42.662;23.352;2023-02-12T04:19:04;17.30;;;12.35;;
41061;SDS011;26812;42.662;23.352;2023-02-12T04:24:05;19.08;;;12.43;;
41061;SDS011;26812;42.662;23.352;2023-02-12T04:32:19;16.13;;;11.43;;
41061;SDS011;26812;42.662;23.352;2023-02-12T04:37:25;15.90;;;12.45;;
41061;SDS011;26812;42.662;23.352;2023-02-12T04:40:01;16.83;;;12.25;;
41061;SDS011;26812;42.662;23.352;2023-02-12T04:42:30;18.25;;;11.65;;
41061;SDS011;26812;42.662;23.352;2023-02-12T04:44:55;16.95;;;11.95;;
41061;SDS011;26812;42.662;23.352;2023-02-12T04:47:20;19.80;;;12.57;;
41061;SDS011;26812;42.662;23.352;2023-02-12T04:49:46;17.27;;;11.70;;
41061;SDS011;26812;42.662;23.352;2023-02-12T04:52:11;20.40;;;13.00;;
41061;SDS011;26812;42.662;23.352;2023-02-12T04:54:37;19.80;;;13.05;;
41061;SDS011;26812;42.662;23.352;2023-02-12T04:57:02;16.60;;;12.38;;
41061;SDS011;26812;42.662;23.352;2023-02-12T04:59:28;19.60;;;12.93;;
41061;SDS011;26812;42.662;23.352;2023-02-12T05:01:53;17.25;;;11.52;;
41061;SDS011;26812;42.662;23.352;2023-02-12T05:04:18;18.20;;;11.90;;
41061;SDS011;26812;42.662;23.352;2023-02-12T05:06:44;17.10;;;11.82;;
41061;SDS011;26812;42.662;23.352;2023-02-12T05:09:12;20.48;;;12.10;;
41061;SDS011;26812;42.662;23.352;2023-02-12T05:11:40;16.83;;;11.27;;
41061;SDS011;26812;42.662;23.352;2023-02-12T05:14:05;18.13;;;11.55;;
41061;SDS011;26812;42.662;23.352;2023-02-12T05:16:31;19.92;;;11.45;;
41061;SDS011;26812;42.662;23.352;2023-02-12T05:18:57;18.85;;;12.45;;
41061;SDS011;26812;42.662;23.352;2023-02-12T05:21:22;14.40;;;10.50;;
41061;SDS011;26812;42.662;23.352;2023-02-12T05:23:47;15.68;;;10.15;;
41061;SDS011;26812;42.662;23.352;2023-02-12T05:26:14;17.85;;;11.68;;
41061;SDS011;26812;42.662;23.352;2023-02-12T05:28:41;17.30;;;11.70;;
41061;SDS011;26812;42.662;23.352;2023-02-12T05:31:08;14.07;;;10.57;;
41061;SDS011;26812;42.662;23.352;2023-02-12T05:33:34;16.23;;;11.52;;
41061;SDS011;26812;42.662;23.352;2023-02-12T05:36:06;15.70;;;11.60;;
41061;SDS011;26812;42.662;23.352;2023-02-12T05:38:34;16.52;;;11.13;;
41061;SDS011;26812;42.662;23.352;2023-02-12T05:43:28;14.07;;;10.43;;
41061;SDS011;26812;42.662;23.352;2023-02-12T05:45:53;15.55;;;10.50;;
41061;SDS011;26812;42.662;23.352;2023-02-12T05:48:19;16.52;;;9.68;;
41061;SDS011;26812;42.662;23.352;2023-02-12T05:50:44;19.00;;;11.18;;
41061;SDS011;26812;42.662;23.352;2023-02-12T05:53:09;15.18;;;10.80;;
41061;SDS011;26812;42.662;23.352;2023-02-12T05:55:35;18.15;;;10.38;;
41061;SDS011;26812;42.662;23.352;2023-02-12T05:58:00;17.10;;;10.02;;
41061;SDS011;26812;42.662;23.352;2023-02-12T06:00:26;15.45;;;11.05;;
41061;SDS011;26812;42.662;23.352;2023-02-12T06:02:51;18.35;;;11.15;;
41061;SDS011;26812;42.662;23.352;2023-02-12T06:05:16;14.35;;;11.30;;
41061;SDS011;26812;42.662;23.352;2023-02-12T06:07:42;17.02;;;10.73;;
41061;SDS011;26812;42.662;23.352;2023-02-12T06:10:07;17.35;;;11.57;;
41061;SDS011;26812;42.662;23.352;2023-02-12T06:12:33;17.55;;;10.70;;
41061;SDS011;26812;42.662;23.352;2023-02-12T06:14:58;18.75;;;10.80;;
41061;SDS011;26812;42.662;23.352;2023-02-12T06:17:24;15.13;;;10.38;;
41061;SDS011;26812;42.662;23.352;2023-02-12T06:19:49;17.13;;;11.55;;
41061;SDS011;26812;42.662;23.352;2023-02-12T06:22:15;15.50;;;10.18;;
41061;SDS011;26812;42.662;23.352;2023-02-12T06:24:40;16.98;;;10.15;;
41061;SDS011;26812;42.662;23.352;2023-02-12T06:27:05;16.02;;;10.90;;
41061;SDS011;26812;42.662;23.352;2023-02-12T06:29:31;11.07;;;8.65;;
41061;SDS011;26812;42.662;23.352;2023-02-12T06:31:56;13.73;;;10.40;;
41061;SDS011;26812;42.662;23.352;2023-02-12T06:34:21;13.43;;;9.15;;
41061;SDS011;26812;42.662;23.352;2023-02-12T06:36:47;17.80;;;10.93;;
41061;SDS011;26812;42.662;23.352;2023-02-12T06:39:13;15.52;;;9.50;;
41061;SDS011;26812;42.662;23.352;2023-02-12T06:41:40;16.98;;;10.25;;
41061;SDS011;26812;42.662;23.352;2023-02-12T06:44:06;14.52;;;9.95;;
41061;SDS011;26812;42.662;23.352;2023-02-12T06:46:32;16.25;;;11.50;;
41061;SDS011;26812;42.662;23.352;2023-02-12T06:48:59;13.90;;;9.55;;
41061;SDS011;26812;42.662;23.352;2023-02-12T06:51:25;15.30;;;11.00;;
41061;SDS011;26812;42.662;23.352;2023-02-12T06:53:53;15.95;;;10.27;;
41061;SDS011;26812;42.662;23.352;2023-02-12T06:56:20;12.95;;;9.27;;
41061;SDS011;26812;42.662;23.352;2023-02-12T06:58:50;15.52;;;10.18;;
41061;SDS011;26812;42.662;23.352;2023-02-12T07:01:19;14.35;;;9.50;;
41061;SDS011;26812;42.662;23.352;2023-02-12T07:03:47;12.27;;;8.73;;
41061;SDS011;26812;42.662;23.352;2023-02-12T07:06:14;15.43;;;10.13;;
41061;SDS011;26812;42.662;23.352;2023-02-12T07:08:39;12.27;;;9.52;;
41061;SDS011;26812;42.662;23.352;2023-02-12T07:11:05;14.52;;;9.30;;
41061;SDS011;26812;42.662;23.352;2023-02-12T07:13:31;15.35;;;10.02;;
41061;SDS011;26812;42.662;23.352;2023-02-12T07:16:01;15.07;;;9.25;;
41061;SDS011;26812;42.662;23.352;2023-02-12T07:18:30;14.73;;;9.75;;
41061;SDS011;26812;42.662;23.352;2023-02-12T07:20:56;19.48;;;10.38;;
41061;SDS011;26812;42.662;23.352;2023-02-12T07:23:21;13.80;;;10.00;;
41061;SDS011;26812;42.662;23.352;2023-02-12T07:25:56;17.10;;;10.32;;
41061;SDS011;26812;42.662;23.352;2023-02-12T07:28:27;18.10;;;10.43;;
41061;SDS011;26812;42.662;23.352;2023-02-12T07:30:52;13.60;;;9.73;;
41061;SDS011;26812;42.662;23.352;2023-02-12T07:33:18;14.48;;;10.43;;
41061;SDS011;26812;42.662;23.352;2023-02-12T07:35:44;16.77;;;11.32;;
41061;SDS011;26812;42.662;23.352;2023-02-12T07:38:10;15.55;;;10.75;;
41061;SDS011;26812;42.662;23.352;2023-02-12T07:40:36;16.42;;;11.50;;
41061;SDS011;26812;42.662;23.352;2023-02-12T07:43:16;15.18;;;11.05;;
41061;SDS011;26812;42.662;23.352;2023-02-12T07:45:41;18.58;;;12.35;;
41061;SDS011;26812;42.662;23.352;2023-02-12T07:48:07;16.65;;;10.98;;
41061;SDS011;26812;42.662;23.352;2023-02-12T07:50:32;16.58;;;10.98;;
41061;SDS011;26812;42.662;23.352;2023-02-12T07:52:57;18.33;;;12.25;;
41061;SDS011;26812;42.662;23.352;2023-02-12T07:55:23;14.05;;;11.57;;
41061;SDS011;26812;42.662;23.352;2023-02-12T07:57:48;20.85;;;11.90;;
41061;SDS011;26812;42.662;23.352;2023-02-12T08:00:14;19.13;;;13.45;;
41061;SDS011;26812;42.662;23.352;2023-02-12T08:02:39;18.05;;;13.07;;
41061;SDS011;26812;42.662;23.352;2023-02-12T08:05:05;19.25;;;13.50;;
41061;SDS011;26812;42.662;23.352;2023-02-12T08:07:31;20.40;;;13.65;;
41061;SDS011;26812;42.662;23.352;2023-02-12T08:09:56;27.63;;;14.65;;
41061;SDS011;26812;42.662;23.352;2023-02-12T08:12:22;22.65;;;12.57;;
41061;SDS011;26812;42.662;23.352;2023-02-12T08:14:47;17.40;;;14.07;;
41061;SDS011;26812;42.662;23.352;2023-02-12T08:17:13;19.67;;;13.27;;
41061;SDS011;26812;42.662;23.352;2023-02-12T08:19:39;18.77;;;11.07;;
41061;SDS011;26812;42.662;23.352;2023-02-12T08:22:10;22.25;;;11.77;;
41061;SDS011;26812;42.662;23.352;2023-02-12T08:24:37;21.20;;;12.57;;
41061;SDS011;26812;42.662;23.352;2023-02-12T08:27:02;19.67;;;13.00;;
41061;SDS011;26812;42.662;23.352;2023-02-12T08:29:29;20.02;;;12.02;;
41061;SDS011;26812;42.662;23.352;2023-02-12T08:31:58;22.23;;;12.55;;
41061;SDS011;26812;42.662;23.352;2023-02-12T08:34:26;22.17;;;13.80;;
41061;SDS011;26812;42.662;23.352;2023-02-12T08:36:56;22.75;;;14.55;;
41061;SDS011;26812;42.662;23.352;2023-02-12T08:39:23;24.00;;;13.82;;
41061;SDS011;26812;42.662;23.352;2023-02-12T08:41:50;20.60;;;13.48;;
41061;SDS011;26812;42.662;23.352;2023-02-12T08:44:17;21.15;;;13.90;;
41061;SDS011;26812;42.662;23.352;2023-02-12T08:46:44;26.00;;;16.23;;
41061;SDS011;26812;42.662;23.352;2023-02-12T08:49:12;23.50;;;14.88;;
41061;SDS011;26812;42.662;23.352;2023-02-12T08:51:44;25.70;;;15.32;;
41061;SDS011;26812;42.662;23.352;2023-02-12T08:54:13;21.08;;;14.07;;
41061;SDS011;26812;42.662;23.352;2023-02-12T08:57:10;21.00;;;15.27;;
41061;SDS011;26812;42.662;23.352;2023-02-12T08:59:35;22.50;;;14.90;;
41061;SDS011;26812;42.662;23.352;2023-02-12T09:02:04;20.63;;;13.60;;
41061;SDS011;26812;42.662;23.352;2023-02-12T09:04:32;23.50;;;13.93;;
41061;SDS011;26812;42.662;23.352;2023-02-12T09:07:13;23.38;;;14.82;;
41061;SDS011;26812;42.662;23.352;2023-02-12T09:09:41;24.27;;;14.93;;
41061;SDS011;26812;42.662;23.352;2023-02-12T09:12:16;19.25;;;14.65;;
41061;SDS011;26812;42.662;23.352;2023-02-12T09:14:45;21.38;;;14.55;;
41061;SDS011;26812;42.662;23.352;2023-02-12T09:17:12;22.90;;;15.25;;
41061;SDS011;26812;42.662;23.352;2023-02-12T09:19:37;19.25;;;14.15;;
41061;SDS011;26812;42.662;23.352;2023-02-12T09:22:03;20.90;;;13.70;;
41061;SDS011;26812;42.662;23.352;2023-02-12T09:24:28;23.70;;;17.25;;
41061;SDS011;26812;42.662;23.352;2023-02-12T09:26:53;22.75;;;14.75;;
41061;SDS011;26812;42.662;23.352;2023-02-12T09:29:19;20.70;;;13.93;;
41061;SDS011;26812;42.662;23.352;2023-02-12T09:31:44;20.60;;;13.82;;
41061;SDS011;26812;42.662;23.352;2023-02-12T09:34:10;23.63;;;15.27;;
41061;SDS011;26812;42.662;23.352;2023-02-12T09:36:35;24.35;;;15.98;;
41061;SDS011;26812;42.662;23.352;2023-02-12T09:39:01;27.02;;;15.23;;
41061;SDS011;26812;42.662;23.352;2023-02-12T09:47:07;24.02;;;16.05;;
41061;SDS011;26812;42.662;23.352;2023-02-12T09:52:51;22.20;;;14.85;;
41061;SDS011;26812;42.662;23.352;2023-02-12T09:55:18;24.58;;;16.50;;
41061;SDS011;26812;42.662;23.352;2023-02-12T09:57:47;22.95;;;15.18;;
41061;SDS011;26812;42.662;23.352;2023-02-12T10:00:28;24.77;;;16.08;;
41061;SDS011;26812;42.662;23.352;2023-02-12T10:02:56;22.45;;;14.68;;
41061;SDS011;26812;42.662;23.352;2023-02-12T10:05:26;21.17;;;15.65;;
41061;SDS011;26812;42.662;23.352;2023-02-12T10:08:14;19.83;;;14.00;;
41061;SDS011;26812;42.662;23.352;2023-02-12T10:10:56;23.90;;;16.17;;
41061;SDS011;26812;42.662;23.352;2023-02-12T10:22:20;22.70;;;15.98;;
41061;SDS011;26812;42.662;23.352;2023-02-12T10:30:19;22.23;;;15.88;;
41061;SDS011;26812;42.662;23.352;2023-02-12T10:32:45;23.98;;;16.65;;
41061;SDS011;26812;42.662;23.352;2023-02-12T10:35:15;26.77;;;16.73;;
41061;SDS011;26812;42.662;23.352;2023-02-12T10:37:54;25.38;;;16.42;;
41061;SDS011;26812;42.662;23.352;2023-02-12T10:40:25;27.63;;;18.35;;
41061;SDS011;26812;42.662;23.352;2023-02-12T10:42:54;24.73;;;17.45;;
41061;SDS011;26812;42.662;23.352;2023-02-12T10:45:34;29.65;;;17.80;;
41061;SDS011;26812;42.662;23.352;2023-02-12T10:53:03;26.42;;;17.83;;
41061;SDS011;26812;42.662;23.352;2023-02-12T10:55:33;28.30;;;18.42;;
41061;SDS011;26812;42.662;23.352;2023-02-12T10:58:01;27.75;;;18.17;;
41061;SDS011;26812;42.662;23.352;2023-02-12T11:00:32;28.80;;;18.75;;
41061;SDS011;26812;42.662;23.352;2023-02-12T11:05:37;28.98;;;19.60;;
41061;SDS011;26812;42.662;23.352;2023-02-12T11:08:04;32.55;;;20.77;;
41061;SDS011;26812;42.662;23.352;2023-02-12T11:10:38;31.05;;;19.25;;
41061;SDS011;26812;42.662;23.352;2023-02-12T11:13:05;30.35;;;19.05;;
41061;SDS011;26812;42.662;23.352;2023-02-12T11:15:46;30.42;;;19.55;;
41061;SDS011;26812;42.662;23.352;2023-02-12T11:23:22;32.75;;;19.30;;
41061;SDS011;26812;42.662;23.352;2023-02-12T11:25:58;28.38;;;18.52;;
41061;SDS011;26812;42.662;23.352;2023-02-12T11:28:27;29.52;;;17.88;;
41061;SDS011;26812;42.662;23.352;2023-02-12T11:31:03;28.35;;;17.90;;
41061;SDS011;26812;42.662;23.352;2023-02-12T11:33:46;29.38;;;19.35;;
41061;SDS011;26812;42.662;23.352;2023-02-12T11:36:32;32.33;;;18.70;;
41061;SDS011;26812;42.662;23.352;2023-02-12T11:39:00;30.75;;;19.50;;
41061;SDS011;26812;42.662;23.352;2023-02-12T11:43:52;27.50;;;19.20;;
41061;SDS011;26812;42.662;23.352;2023-02-12T11:46:19;26.52;;;18.67;;
41061;SDS011;26812;42.662;23.352;2023-02-12T11:48:47;28.38;;;18.08;;
41061;SDS011;26812;42.662;23.352;2023-02-12T11:51:26;23.35;;;16.45;;
41061;SDS011;26812;42.662;23.352;2023-02-12T11:53:56;30.38;;;18.73;;
41061;SDS011;26812;42.662;23.352;2023-02-12T11:56:25;26.83;;;17.63;;
41061;SDS011;26812;42.662;23.352;2023-02-12T11:59:39;25.20;;;17.30;;
41061;SDS011;26812;42.662;23.352;2023-02-12T12:04:35;24.52;;;17.67;;
41061;SDS011;26812;42.662;23.352;2023-02-12T12:07:09;27.05;;;18.35;;
41061;SDS011;26812;42.662;23.352;2023-02-12T12:10:02;31.65;;;18.13;;
41061;SDS011;26812;42.662;23.352;2023-02-12T12:12:43;26.52;;;19.17;;
41061;SDS011;26812;42.662;23.352;2023-02-12T12:18:15;29.38;;;19.77;;
41061;SDS011;26812;42.662;23.352;2023-02-12T12:21:08;27.95;;;17.38;;
41061;SDS011;26812;42.662;23.352;2023-02-12T12:24:24;35.17;;;19.10;;
41061;SDS011;26812;42.662;23.352;2023-02-12T12:26:46;31.13;;;18.52;;
41061;SDS011;26812;42.662;23.352;2023-02-12T12:29:41;31.60;;;20.98;;
41061;SDS011;26812;42.662;23.352;2023-02-12T12:32:33;26.38;;;18.70;;
41061;SDS011;26812;42.662;23.352;2023-02-12T12:35:02;32.45;;;19.98;;
41061;SDS011;26812;42.662;23.352;2023-02-12T12:54:14;23.85;;;17.17;;
41061;SDS011;26812;42.662;23.352;2023-02-12T12:56:57;25.83;;;17.75;;
41061;SDS011;26812;42.662;23.352;2023-02-12T13:08:27;28.85;;;18.65;;
41061;SDS011;26812;42.662;23.352;2023-02-12T13:11:39;26.98;;;17.70;;
41061;SDS011;26812;42.662;23.352;2023-02-12T13:13:56;29.73;;;19.60;;
41061;SDS011;26812;42.662;23.352;2023-02-12T13:16:34;24.88;;;17.35;;
41061;SDS011;26812;42.662;23.352;2023-02-12T13:22:33;28.00;;;18.08;;
41061;SDS011;26812;42.662;23.352;2023-02-12T13:25:22;27.70;;;19.02;;
41061;SDS011;26812;42.662;23.352;2023-02-12T13:27:55;31.45;;;18.50;;
41061;SDS011;26812;42.662;23.352;2023-02-12T13:30:28;27.35;;;17.95;;
41061;SDS011;26812;42.662;23.352;2023-02-12T13:35:59;30.85;;;18.67;;
41061;SDS011;26812;42.662;23.352;2023-02-12T13:41:04;27.73;;;19.10;;
41061;SDS011;26812;42.662;23.352;2023-02-12T13:52:03;28.30;;;19.67;;
41061;SDS011;26812;42.662;23.352;2023-02-12T13:54:52;28.52;;;20.42;;
41061;SDS011;26812;42.662;23.352;2023-02-12T13:57:19;36.08;;;20.40;;
41061;SDS011;26812;42.662;23.352;2023-02-12T13:59:46;30.20;;;21.63;;
41061;SDS011;26812;42.662;23.352;2023-02-12T14:02:50;34.08;;;20.52;;
41061;SDS011;26812;42.662;23.352;2023-02-12T14:07:55;25.15;;;18.08;;
41061;SDS011;26812;42.662;23.352;2023-02-12T14:12:55;30.73;;;19.88;;
41061;SDS011;26812;42.662;23.352;2023-02-12T14:15:37;28.65;;;19.92;;
41061;SDS011;26812;42.662;23.352;2023-02-12T14:18:23;26.93;;;17.83;;
41061;SDS011;26812;42.662;23.352;2023-02-12T14:23:38;30.75;;;19.67;;
41061;SDS011;26812;42.662;23.352;2023-02-12T14:26:17;30.58;;;18.85;;
41061;SDS011;26812;42.662;23.352;2023-02-12T14:33:51;29.93;;;19.70;;
41061;SDS011;26812;42.662;23.352;2023-02-12T14:36:37;34.65;;;20.92;;
41061;SDS011;26812;42.662;23.352;2023-02-12T14:41:55;28.15;;;19.58;;
41061;SDS011;26812;42.662;23.352;2023-02-12T14:44:37;31.85;;;19.33;;
41061;SDS011;26812;42.662;23.352;2023-02-12T14:47:12;30.48;;;19.20;;
41061;SDS011;26812;42.662;23.352;2023-02-12T14:49:53;31.05;;;19.45;;
41061;SDS011;26812;42.662;23.352;2023-02-12T14:52:25;31.40;;;20.38;;
41061;SDS011;26812;42.662;23.352;2023-02-12T14:54:54;34.05;;;21.42;;
41061;SDS011;26812;42.662;23.352;2023-02-12T14:57:30;32.08;;;20.95;;
41061;SDS011;26812;42.662;23.352;2023-02-12T15:00:00;32.28;;;20.65;;
41061;SDS011;26812;42.662;23.352;2023-02-12T15:02:38;31.58;;;20.35;;
41061;SDS011;26812;42.662;23.352;2023-02-12T15:05:16;30.45;;;18.98;;
41061;SDS011;26812;42.662;23.352;2023-02-12T15:10:24;37.42;;;23.00;;
41061;SDS011;26812;42.662;23.352;2023-02-12T15:13:00;33.05;;;20.05;;
41061;SDS011;26812;42.662;23.352;2023-02-12T15:15:46;31.60;;;22.27;;
41061;SDS011;26812;42.662;23.352;2023-02-12T15:18:43;34.45;;;20.75;;
41061;SDS011;26812;42.662;23.352;2023-02-12T15:21:23;38.65;;;22.77;;
41061;SDS011;26812;42.662;23.352;2023-02-12T15:24:07;38.60;;;23.75;;
41061;SDS011;26812;42.662;23.352;2023-02-12T15:26:41;36.72;;;22.13;;
41061;SDS011;26812;42.662;23.352;2023-02-12T15:29:18;37.00;;;23.67;;
41061;SDS011;26812;42.662;23.352;2023-02-12T15:31:51;39.00;;;22.67;;
41061;SDS011;26812;42.662;23.352;2023-02-12T15:34:21;39.10;;;22.55;;
41061;SDS011;26812;42.662;23.352;2023-02-12T15:36:48;27.65;;;20.15;;
41061;SDS011;26812;42.662;23.352;2023-02-12T15:39:19;37.00;;;22.30;;
41061;SDS011;26812;42.662;23.352;2023-02-12T15:41:46;34.28;;;21.08;;
41061;SDS011;26812;42.662;23.352;2023-02-12T15:51:15;36.38;;;20.35;;
41061;SDS011;26812;42.662;23.352;2023-02-12T15:53:46;39.30;;;24.02;;
41061;SDS011;26812;42.662;23.352;2023-02-12T15:56:13;38.50;;;24.10;;
41061;SDS011;26812;42.662;23.352;2023-02-12T15:58:45;40.45;;;24.60;;
41061;SDS011;26812;42.662;23.352;2023-02-12T16:01:19;35.15;;;23.27;;
41061;SDS011;26812;42.662;23.352;2023-02-12T16:03:50;39.53;;;24.48;;
41061;SDS011;26812;42.662;23.352;2023-02-12T16:06:17;39.35;;;23.60;;
41061;SDS011;26812;42.662;23.352;2023-02-12T16:08:49;41.40;;;24.08;;
41061;SDS011;26812;42.662;23.352;2023-02-12T16:11:22;41.78;;;23.55;;
41061;SDS011;26812;42.662;23.352;2023-02-12T16:13:57;38.35;;;24.27;;
41061;SDS011;26812;42.662;23.352;2023-02-12T16:22:01;39.15;;;23.50;;
41061;SDS011;26812;42.662;23.352;2023-02-12T16:24:48;43.70;;;26.15;;
41061;SDS011;26812;42.662;23.352;2023-02-12T16:27:26;40.72;;;23.98;;
41061;SDS011;26812;42.662;23.352;2023-02-12T16:30:01;37.05;;;22.50;;
41061;SDS011;26812;42.662;23.352;2023-02-12T16:32:46;42.20;;;24.58;;
41061;SDS011;26812;42.662;23.352;2023-02-12T16:37:40;34.97;;;23.35;;
41061;SDS011;26812;42.662;23.352;2023-02-12T16:42:44;44.15;;;25.38;;
41061;SDS011;26812;42.662;23.352;2023-02-12T16:47:56;40.50;;;25.05;;
41061;SDS011;26812;42.662;23.352;2023-02-12T16:50:23;43.67;;;26.02;;
41061;SDS011;26812;42.662;23.352;2023-02-12T16:53:00;40.75;;;24.17;;
41061;SDS011;26812;42.662;23.352;2023-02-12T16:55:28;40.25;;;24.50;;
41061;SDS011;26812;42.662;23.352;2023-02-12T16:57:54;38.67;;;24.92;;
41061;SDS011;26812;42.662;23.352;2023-02-12T17:00:19;47.75;;;26.30;;
41061;SDS011;26812;42.662;23.352;2023-02-12T17:02:46;42.65;;;25.88;;
41061;SDS011;26812;42.662;23.352;2023-02-12T17:05:13;42.72;;;25.95;;
41061;SDS011;26812;42.662;23.352;2023-02-12T17:07:41;46.25;;;26.90;;
41061;SDS011;26812;42.662;23.352;2023-02-12T17:10:06;44.00;;;25.92;;
41061;SDS011;26812;42.662;23.352;2023-02-12T17:12:43;45.13;;;27.88;;
41061;SDS011;26812;42.662;23.352;2023-02-12T17:15:27;48.40;;;28.42;;
41061;SDS011;26812;42.662;23.352;2023-02-12T17:17:59;44.03;;;26.50;;
41061;SDS011;26812;42.662;23.352;2023-02-12T17:20:25;44.72;;;27.98;;
41061;SDS011;26812;42.662;23.352;2023-02-12T17:22:51;48.97;;;28.23;;